sensor_id;sensor_type;location;lat;lon;timestamp;P1;durP1;ratioP1;P2;durP2;ratioP2
78143;SDS011;67394;52.522;13.622;2023-05-07T00:02:21;19.85;;;11.60;;
78143;SDS011;67394;52.522;13.622;2023-05-07T00:04:48;17.25;;;11.48;;
78143;SDS011;67394;52.522;13.622;2023-05-07T00:07:15;18.25;;;12.00;;
78143;SDS011;67394;52.522;13.622;2023-05-07T00:09:42;15.48;;;11.00;;
78143;SDS011;67394;52.522;13.622;2023-05-07T00:12:10;17.58;;;12.00;;
78143;SDS011;67394;52.522;13.622;2023-05-07T00:14:39;15.63;;;10.88;;
78143;SDS011;67394;52.522;13.622;2023-05-07T00:17:05;16.10;;;10.38;;
78143;SDS011;67394;52.522;13.622;2023-05-07T00:19:33;15.35;;;10.73;;
78143;SDS011;67394;52.522;13.622;2023-05-07T00:22:00;17.10;;;10.98;;
78143;SDS011;67394;52.522;13.622;2023-05-07T00:24:26;15.30;;;10.98;;
78143;SDS011;67394;52.522;13.622;2023-05-07T00:26:52;16.45;;;10.95;;
78143;SDS011;67394;52.522;13.622;2023-05-07T00:29:19;17.27;;;11.45;;
78143;SDS011;67394;52.522;13.622;2023-05-07T00:31:46;18.13;;;11.52;;
78143;SDS011;67394;52.522;13.622;2023-05-07T00:34:12;15.40;;;10.80;;
78143;SDS011;67394;52.522;13.622;2023-05-07T00:36:39;16.48;;;10.05;;
78143;SDS011;67394;52.522;13.622;2023-05-07T00:39:05;15.52;;;10.23;;
78143;SDS011;67394;52.522;13.622;2023-05-07T00:41:32;16.30;;;10.63;;
78143;SDS011;67394;52.522;13.622;2023-05-07T00:43:59;14.50;;;11.32;;
78143;SDS011;67394;52.522;13.622;2023-05-07T00:46:26;17.70;;;10.43;;
78143;SDS011;67394;52.522;13.622;2023-05-07T00:48:53;15.07;;;10.25;;
78143;SDS011;67394;52.522;13.622;2023-05-07T00:51:20;15.25;;;10.35;;
78143;SDS011;67394;52.522;13.622;2023-05-07T00:53:46;16.75;;;10.48;;
78143;SDS011;67394;52.522;13.622;2023-05-07T00:56:15;16.45;;;11.80;;
78143;SDS011;67394;52.522;13.622;2023-05-07T00:58:42;14.30;;;10.52;;
78143;SDS011;67394;52.522;13.622;2023-05-07T01:01:09;18.15;;;11.40;;
78143;SDS011;67394;52.522;13.622;2023-05-07T01:03:36;16.17;;;10.98;;
78143;SDS011;67394;52.522;13.622;2023-05-07T01:06:03;16.88;;;11.23;;
78143;SDS011;67394;52.522;13.622;2023-05-07T01:08:31;19.02;;;11.52;;
78143;SDS011;67394;52.522;13.622;2023-05-07T01:10:59;16.98;;;11.48;;
78143;SDS011;67394;52.522;13.622;2023-05-07T01:15:55;18.92;;;11.20;;
78143;SDS011;67394;52.522;13.622;2023-05-07T01:18:22;17.70;;;10.73;;
78143;SDS011;67394;52.522;13.622;2023-05-07T01:20:49;19.48;;;11.07;;
78143;SDS011;67394;52.522;13.622;2023-05-07T01:25:43;17.40;;;10.38;;
78143;SDS011;67394;52.522;13.622;2023-05-07T01:28:09;15.55;;;10.40;;
78143;SDS011;67394;52.522;13.622;2023-05-07T01:30:36;17.27;;;10.95;;
78143;SDS011;67394;52.522;13.622;2023-05-07T01:33:08;16.70;;;10.75;;
78143;SDS011;67394;52.522;13.622;2023-05-07T01:35:38;16.45;;;10.90;;
78143;SDS011;67394;52.522;13.622;2023-05-07T01:40:39;15.23;;;10.65;;
78143;SDS011;67394;52.522;13.622;2023-05-07T01:43:05;17.67;;;10.75;;
78143;SDS011;67394;52.522;13.622;2023-05-07T01:45:32;16.92;;;10.75;;
78143;SDS011;67394;52.522;13.622;2023-05-07T01:48:01;16.55;;;10.85;;
78143;SDS011;67394;52.522;13.622;2023-05-07T01:50:29;17.00;;;11.93;;
78143;SDS011;67394;52.522;13.622;2023-05-07T01:52:58;14.35;;;10.57;;
78143;SDS011;67394;52.522;13.622;2023-05-07T01:55:25;19.33;;;11.63;;
78143;SDS011;67394;52.522;13.622;2023-05-07T01:57:52;17.92;;;11.20;;
78143;SDS011;67394;52.522;13.622;2023-05-07T02:00:19;17.52;;;11.05;;
78143;SDS011;67394;52.522;13.622;2023-05-07T02:02:46;17.90;;;11.18;;
78143;SDS011;67394;52.522;13.622;2023-05-07T02:05:13;16.40;;;11.13;;
78143;SDS011;67394;52.522;13.622;2023-05-07T02:07:39;16.17;;;10.25;;
78143;SDS011;67394;52.522;13.622;2023-05-07T02:10:06;16.63;;;10.60;;
78143;SDS011;67394;52.522;13.622;2023-05-07T02:12:35;16.65;;;10.95;;
78143;SDS011;67394;52.522;13.622;2023-05-07T02:15:02;16.58;;;10.48;;
78143;SDS011;67394;52.522;13.622;2023-05-07T02:17:29;16.75;;;10.93;;
78143;SDS011;67394;52.522;13.622;2023-05-07T02:19:55;16.20;;;11.00;;
78143;SDS011;67394;52.522;13.622;2023-05-07T02:22:22;17.20;;;10.43;;
78143;SDS011;67394;52.522;13.622;2023-05-07T02:24:49;15.52;;;10.90;;
78143;SDS011;67394;52.522;13.622;2023-05-07T02:27:15;16.23;;;10.48;;
78143;SDS011;67394;52.522;13.622;2023-05-07T02:29:42;15.13;;;10.00;;
78143;SDS011;67394;52.522;13.622;2023-05-07T02:32:08;17.45;;;11.15;;
78143;SDS011;67394;52.522;13.622;2023-05-07T02:34:35;17.00;;;11.82;;
78143;SDS011;67394;52.522;13.622;2023-05-07T02:37:02;16.95;;;11.48;;
78143;SDS011;67394;52.522;13.622;2023-05-07T02:39:29;15.50;;;10.90;;
78143;SDS011;67394;52.522;13.622;2023-05-07T02:41:55;15.52;;;11.00;;
78143;SDS011;67394;52.522;13.622;2023-05-07T02:44:22;16.33;;;11.25;;
78143;SDS011;67394;52.522;13.622;2023-05-07T02:46:48;16.83;;;10.75;;
78143;SDS011;67394;52.522;13.622;2023-05-07T02:49:15;15.95;;;10.85;;
78143;SDS011;67394;52.522;13.622;2023-05-07T02:51:42;17.30;;;10.52;;
78143;SDS011;67394;52.522;13.622;2023-05-07T02:54:08;15.70;;;9.65;;
78143;SDS011;67394;52.522;13.622;2023-05-07T02:56:35;16.50;;;10.77;;
78143;SDS011;67394;52.522;13.622;2023-05-07T02:59:02;16.63;;;11.75;;
78143;SDS011;67394;52.522;13.622;2023-05-07T03:01:28;16.40;;;11.65;;
78143;SDS011;67394;52.522;13.622;2023-05-07T03:03:55;15.20;;;10.07;;
78143;SDS011;67394;52.522;13.622;2023-05-07T03:06:23;16.27;;;11.18;;
78143;SDS011;67394;52.522;13.622;2023-05-07T03:08:50;14.80;;;10.43;;
78143;SDS011;67394;52.522;13.622;2023-05-07T03:11:16;15.45;;;10.50;;
78143;SDS011;67394;52.522;13.622;2023-05-07T03:13:45;16.98;;;11.43;;
78143;SDS011;67394;52.522;13.622;2023-05-07T03:16:12;15.10;;;9.82;;
78143;SDS011;67394;52.522;13.622;2023-05-07T03:18:38;14.90;;;10.27;;
78143;SDS011;67394;52.522;13.622;2023-05-07T03:21:05;13.55;;;10.13;;
78143;SDS011;67394;52.522;13.622;2023-05-07T03:23:32;17.77;;;10.50;;
78143;SDS011;67394;52.522;13.622;2023-05-07T03:25:59;14.77;;;10.25;;
78143;SDS011;67394;52.522;13.622;2023-05-07T03:28:25;13.73;;;9.65;;
78143;SDS011;67394;52.522;13.622;2023-05-07T03:30:52;14.43;;;9.23;;
78143;SDS011;67394;52.522;13.622;2023-05-07T03:33:18;15.25;;;10.38;;
78143;SDS011;67394;52.522;13.622;2023-05-07T03:35:45;14.32;;;10.32;;
78143;SDS011;67394;52.522;13.622;2023-05-07T03:38:13;12.35;;;8.68;;
78143;SDS011;67394;52.522;13.622;2023-05-07T03:40:41;15.57;;;10.65;;
78143;SDS011;67394;52.522;13.622;2023-05-07T03:43:08;14.02;;;9.10;;
78143;SDS011;67394;52.522;13.622;2023-05-07T03:45:35;15.00;;;9.18;;
78143;SDS011;67394;52.522;13.622;2023-05-07T03:48:01;12.23;;;8.52;;
78143;SDS011;67394;52.522;13.622;2023-05-07T03:50:29;14.20;;;9.48;;
78143;SDS011;67394;52.522;13.622;2023-05-07T03:52:55;14.90;;;9.27;;
78143;SDS011;67394;52.522;13.622;2023-05-07T03:55:22;15.23;;;9.57;;
78143;SDS011;67394;52.522;13.622;2023-05-07T03:57:48;15.07;;;9.45;;
78143;SDS011;67394;52.522;13.622;2023-05-07T04:00:15;14.45;;;9.77;;
78143;SDS011;67394;52.522;13.622;2023-05-07T04:02:42;15.95;;;9.70;;
78143;SDS011;67394;52.522;13.622;2023-05-07T04:05:09;15.35;;;9.48;;
78143;SDS011;67394;52.522;13.622;2023-05-07T04:07:35;14.80;;;9.88;;
78143;SDS011;67394;52.522;13.622;2023-05-07T04:10:05;11.50;;;8.25;;
78143;SDS011;67394;52.522;13.622;2023-05-07T04:12:32;12.20;;;8.35;;
78143;SDS011;67394;52.522;13.622;2023-05-07T04:14:58;11.95;;;8.70;;
78143;SDS011;67394;52.522;13.622;2023-05-07T04:17:25;12.60;;;9.48;;
78143;SDS011;67394;52.522;13.622;2023-05-07T04:19:51;13.43;;;9.38;;
78143;SDS011;67394;52.522;13.622;2023-05-07T04:22:18;12.88;;;8.50;;
78143;SDS011;67394;52.522;13.622;2023-05-07T04:24:45;11.63;;;8.32;;
78143;SDS011;67394;52.522;13.622;2023-05-07T04:27:11;12.05;;;8.07;;
78143;SDS011;67394;52.522;13.622;2023-05-07T04:29:37;12.02;;;8.38;;
78143;SDS011;67394;52.522;13.622;2023-05-07T04:32:04;14.30;;;7.95;;
78143;SDS011;67394;52.522;13.622;2023-05-07T04:34:32;9.85;;;7.35;;
78143;SDS011;67394;52.522;13.622;2023-05-07T04:36:59;10.13;;;7.07;;
78143;SDS011;67394;52.522;13.622;2023-05-07T04:39:26;11.52;;;8.20;;
78143;SDS011;67394;52.522;13.622;2023-05-07T04:41:52;11.52;;;8.25;;
78143;SDS011;67394;52.522;13.622;2023-05-07T04:44:19;10.60;;;7.38;;
78143;SDS011;67394;52.522;13.622;2023-05-07T04:46:46;14.52;;;7.78;;
78143;SDS011;67394;52.522;13.622;2023-05-07T04:49:12;13.55;;;7.80;;
78143;SDS011;67394;52.522;13.622;2023-05-07T04:51:39;11.05;;;7.82;;
78143;SDS011;67394;52.522;13.622;2023-05-07T04:54:06;11.27;;;7.65;;
78143;SDS011;67394;52.522;13.622;2023-05-07T04:56:33;9.90;;;6.70;;
78143;SDS011;67394;52.522;13.622;2023-05-07T04:58:59;12.65;;;7.80;;
78143;SDS011;67394;52.522;13.622;2023-05-07T05:01:26;13.00;;;8.13;;
78143;SDS011;67394;52.522;13.622;2023-05-07T05:03:52;12.13;;;7.70;;
78143;SDS011;67394;52.522;13.622;2023-05-07T05:06:19;11.85;;;8.18;;
78143;SDS011;67394;52.522;13.622;2023-05-07T05:08:46;10.35;;;7.55;;
78143;SDS011;67394;52.522;13.622;2023-05-07T05:11:12;18.45;;;8.82;;
78143;SDS011;67394;52.522;13.622;2023-05-07T05:13:39;12.27;;;7.55;;
78143;SDS011;67394;52.522;13.622;2023-05-07T05:16:06;12.65;;;7.75;;
78143;SDS011;67394;52.522;13.622;2023-05-07T05:18:33;12.45;;;7.50;;
78143;SDS011;67394;52.522;13.622;2023-05-07T05:20:59;10.18;;;7.30;;
78143;SDS011;67394;52.522;13.622;2023-05-07T05:23:26;11.70;;;7.00;;
78143;SDS011;67394;52.522;13.622;2023-05-07T05:25:56;12.30;;;7.55;;
78143;SDS011;67394;52.522;13.622;2023-05-07T05:28:23;15.40;;;7.50;;
78143;SDS011;67394;52.522;13.622;2023-05-07T05:30:50;10.88;;;7.68;;
78143;SDS011;67394;52.522;13.622;2023-05-07T05:33:17;11.50;;;8.05;;
78143;SDS011;67394;52.522;13.622;2023-05-07T05:35:43;11.60;;;8.05;;
78143;SDS011;67394;52.522;13.622;2023-05-07T05:38:10;11.02;;;7.95;;
78143;SDS011;67394;52.522;13.622;2023-05-07T05:40:37;11.27;;;7.50;;
78143;SDS011;67394;52.522;13.622;2023-05-07T05:43:03;10.93;;;7.85;;
78143;SDS011;67394;52.522;13.622;2023-05-07T05:45:30;10.50;;;7.45;;
78143;SDS011;67394;52.522;13.622;2023-05-07T05:47:57;9.77;;;6.93;;
78143;SDS011;67394;52.522;13.622;2023-05-07T05:50:25;12.20;;;7.25;;
78143;SDS011;67394;52.522;13.622;2023-05-07T05:52:52;10.02;;;7.55;;
78143;SDS011;67394;52.522;13.622;2023-05-07T05:55:18;11.18;;;7.50;;
78143;SDS011;67394;52.522;13.622;2023-05-07T05:57:45;10.27;;;7.57;;
78143;SDS011;67394;52.522;13.622;2023-05-07T06:00:12;10.82;;;7.00;;
78143;SDS011;67394;52.522;13.622;2023-05-07T06:02:39;13.10;;;7.85;;
78143;SDS011;67394;52.522;13.622;2023-05-07T06:05:06;11.73;;;7.68;;
78143;SDS011;67394;52.522;13.622;2023-05-07T06:07:34;11.68;;;7.53;;
78143;SDS011;67394;52.522;13.622;2023-05-07T06:10:01;10.63;;;7.55;;
78143;SDS011;67394;52.522;13.622;2023-05-07T06:12:28;9.43;;;6.70;;
78143;SDS011;67394;52.522;13.622;2023-05-07T06:17:22;7.30;;;6.03;;
78143;SDS011;67394;52.522;13.622;2023-05-07T06:19:51;9.02;;;7.20;;
78143;SDS011;67394;52.522;13.622;2023-05-07T06:22:21;10.10;;;7.00;;
78143;SDS011;67394;52.522;13.622;2023-05-07T06:24:48;10.77;;;7.22;;
78143;SDS011;67394;52.522;13.622;2023-05-07T06:27:15;8.65;;;6.80;;
78143;SDS011;67394;52.522;13.622;2023-05-07T06:29:41;9.40;;;7.13;;
78143;SDS011;67394;52.522;13.622;2023-05-07T06:32:11;8.15;;;5.80;;
78143;SDS011;67394;52.522;13.622;2023-05-07T06:34:39;8.05;;;5.88;;
78143;SDS011;67394;52.522;13.622;2023-05-07T06:37:07;8.82;;;5.57;;
78143;SDS011;67394;52.522;13.622;2023-05-07T06:39:33;9.02;;;6.15;;
78143;SDS011;67394;52.522;13.622;2023-05-07T06:42:00;8.45;;;6.25;;
78143;SDS011;67394;52.522;13.622;2023-05-07T06:46:54;6.63;;;5.55;;
78143;SDS011;67394;52.522;13.622;2023-05-07T06:51:48;8.00;;;5.30;;
78143;SDS011;67394;52.522;13.622;2023-05-07T06:54:14;8.75;;;6.28;;
78143;SDS011;67394;52.522;13.622;2023-05-07T06:56:41;7.18;;;5.63;;
78143;SDS011;67394;52.522;13.622;2023-05-07T06:59:08;7.68;;;5.22;;
78143;SDS011;67394;52.522;13.622;2023-05-07T07:01:34;7.53;;;5.40;;
78143;SDS011;67394;52.522;13.622;2023-05-07T07:04:01;7.53;;;5.45;;
78143;SDS011;67394;52.522;13.622;2023-05-07T07:06:27;6.75;;;5.40;;
78143;SDS011;67394;52.522;13.622;2023-05-07T07:08:54;8.35;;;5.90;;
78143;SDS011;67394;52.522;13.622;2023-05-07T07:11:21;5.97;;;4.68;;
78143;SDS011;67394;52.522;13.622;2023-05-07T07:13:48;6.93;;;5.15;;
78143;SDS011;67394;52.522;13.622;2023-05-07T07:16:17;6.32;;;5.05;;
78143;SDS011;67394;52.522;13.622;2023-05-07T07:18:43;8.13;;;4.97;;
78143;SDS011;67394;52.522;13.622;2023-05-07T07:21:10;8.13;;;5.63;;
78143;SDS011;67394;52.522;13.622;2023-05-07T07:23:37;6.32;;;4.85;;
78143;SDS011;67394;52.522;13.622;2023-05-07T07:26:03;6.70;;;4.72;;
78143;SDS011;67394;52.522;13.622;2023-05-07T07:28:30;6.68;;;4.78;;
78143;SDS011;67394;52.522;13.622;2023-05-07T07:30:58;6.18;;;4.65;;
78143;SDS011;67394;52.522;13.622;2023-05-07T07:33:25;8.43;;;4.75;;
78143;SDS011;67394;52.522;13.622;2023-05-07T07:35:51;7.00;;;5.55;;
78143;SDS011;67394;52.522;13.622;2023-05-07T07:38:18;7.85;;;5.20;;
78143;SDS011;67394;52.522;13.622;2023-05-07T07:40:47;7.63;;;5.10;;
78143;SDS011;67394;52.522;13.622;2023-05-07T07:43:13;9.05;;;4.88;;
78143;SDS011;67394;52.522;13.622;2023-05-07T07:45:40;6.65;;;4.22;;
78143;SDS011;67394;52.522;13.622;2023-05-07T07:48:07;7.82;;;4.00;;
78143;SDS011;67394;52.522;13.622;2023-05-07T07:53:11;6.50;;;4.10;;
78143;SDS011;67394;52.522;13.622;2023-05-07T07:55:39;5.10;;;3.95;;
78143;SDS011;67394;52.522;13.622;2023-05-07T07:58:06;4.18;;;3.63;;
78143;SDS011;67394;52.522;13.622;2023-05-07T08:00:32;4.70;;;4.07;;
78143;SDS011;67394;52.522;13.622;2023-05-07T08:02:59;6.93;;;4.22;;
78143;SDS011;67394;52.522;13.622;2023-05-07T08:05:26;6.28;;;4.03;;
78143;SDS011;67394;52.522;13.622;2023-05-07T08:07:53;5.28;;;3.60;;
78143;SDS011;67394;52.522;13.622;2023-05-07T08:10:21;4.80;;;3.75;;
78143;SDS011;67394;52.522;13.622;2023-05-07T08:12:51;5.32;;;3.65;;
78143;SDS011;67394;52.522;13.622;2023-05-07T08:15:18;4.65;;;3.53;;
78143;SDS011;67394;52.522;13.622;2023-05-07T08:17:44;5.45;;;3.92;;
78143;SDS011;67394;52.522;13.622;2023-05-07T08:20:11;5.07;;;3.72;;
78143;SDS011;67394;52.522;13.622;2023-05-07T08:25:04;6.60;;;4.03;;
78143;SDS011;67394;52.522;13.622;2023-05-07T08:27:31;5.70;;;3.63;;
78143;SDS011;67394;52.522;13.622;2023-05-07T08:29:58;5.38;;;4.10;;
78143;SDS011;67394;52.522;13.622;2023-05-07T08:32:26;5.00;;;3.10;;
78143;SDS011;67394;52.522;13.622;2023-05-07T08:34:53;4.75;;;3.35;;
78143;SDS011;67394;52.522;13.622;2023-05-07T08:37:20;4.80;;;3.35;;
78143;SDS011;67394;52.522;13.622;2023-05-07T08:39:46;5.10;;;3.17;;
78143;SDS011;67394;52.522;13.622;2023-05-07T08:42:13;3.88;;;3.08;;
78143;SDS011;67394;52.522;13.622;2023-05-07T08:44:42;7.65;;;3.65;;
78143;SDS011;67394;52.522;13.622;2023-05-07T08:47:12;5.32;;;3.40;;
78143;SDS011;67394;52.522;13.622;2023-05-07T08:49:39;4.30;;;2.97;;
78143;SDS011;67394;52.522;13.622;2023-05-07T08:52:06;7.40;;;3.55;;
78143;SDS011;67394;52.522;13.622;2023-05-07T08:54:36;5.57;;;3.38;;
78143;SDS011;67394;52.522;13.622;2023-05-07T08:57:04;6.20;;;3.90;;
78143;SDS011;67394;52.522;13.622;2023-05-07T08:59:30;5.20;;;3.72;;
78143;SDS011;67394;52.522;13.622;2023-05-07T09:01:57;4.57;;;3.15;;
78143;SDS011;67394;52.522;13.622;2023-05-07T09:04:24;4.30;;;3.13;;
78143;SDS011;67394;52.522;13.622;2023-05-07T09:06:50;4.35;;;2.83;;
78143;SDS011;67394;52.522;13.622;2023-05-07T09:09:17;4.07;;;3.05;;
78143;SDS011;67394;52.522;13.622;2023-05-07T09:11:44;4.78;;;3.20;;
78143;SDS011;67394;52.522;13.622;2023-05-07T09:14:10;5.63;;;3.25;;
78143;SDS011;67394;52.522;13.622;2023-05-07T09:16:37;4.13;;;2.88;;
78143;SDS011;67394;52.522;13.622;2023-05-07T09:19:04;4.75;;;3.00;;
78143;SDS011;67394;52.522;13.622;2023-05-07T09:21:31;3.75;;;3.13;;
78143;SDS011;67394;52.522;13.622;2023-05-07T09:23:58;5.07;;;3.38;;
78143;SDS011;67394;52.522;13.622;2023-05-07T09:26:24;4.38;;;2.88;;
78143;SDS011;67394;52.522;13.622;2023-05-07T09:28:51;4.57;;;3.10;;
78143;SDS011;67394;52.522;13.622;2023-05-07T09:31:19;2.88;;;2.20;;
78143;SDS011;67394;52.522;13.622;2023-05-07T09:33:47;3.55;;;2.67;;
78143;SDS011;67394;52.522;13.622;2023-05-07T09:36:14;3.88;;;2.88;;
78143;SDS011;67394;52.522;13.622;2023-05-07T09:38:42;3.85;;;2.63;;
78143;SDS011;67394;52.522;13.622;2023-05-07T09:41:09;3.55;;;2.45;;
78143;SDS011;67394;52.522;13.622;2023-05-07T09:43:38;4.93;;;3.03;;
78143;SDS011;67394;52.522;13.622;2023-05-07T09:46:06;3.25;;;2.42;;
78143;SDS011;67394;52.522;13.622;2023-05-07T09:48:41;3.58;;;2.70;;
78143;SDS011;67394;52.522;13.622;2023-05-07T09:51:18;2.63;;;2.00;;
78143;SDS011;67394;52.522;13.622;2023-05-07T09:53:52;4.18;;;2.65;;
78143;SDS011;67394;52.522;13.622;2023-05-07T09:56:19;3.35;;;2.30;;
78143;SDS011;67394;52.522;13.622;2023-05-07T09:58:46;3.40;;;2.13;;
78143;SDS011;67394;52.522;13.622;2023-05-07T10:01:13;3.65;;;2.35;;
78143;SDS011;67394;52.522;13.622;2023-05-07T10:03:41;3.60;;;2.03;;
78143;SDS011;67394;52.522;13.622;2023-05-07T10:06:08;5.38;;;3.00;;
78143;SDS011;67394;52.522;13.622;2023-05-07T10:08:36;4.35;;;2.38;;
78143;SDS011;67394;52.522;13.622;2023-05-07T10:11:03;3.28;;;2.38;;
78143;SDS011;67394;52.522;13.622;2023-05-07T10:13:34;3.42;;;2.38;;
78143;SDS011;67394;52.522;13.622;2023-05-07T10:16:01;3.50;;;2.20;;
78143;SDS011;67394;52.522;13.622;2023-05-07T10:18:30;4.03;;;2.50;;
78143;SDS011;67394;52.522;13.622;2023-05-07T10:21:06;4.68;;;2.65;;
78143;SDS011;67394;52.522;13.622;2023-05-07T10:23:34;3.10;;;2.40;;
78143;SDS011;67394;52.522;13.622;2023-05-07T10:26:02;3.47;;;2.20;;
78143;SDS011;67394;52.522;13.622;2023-05-07T10:28:32;3.50;;;2.58;;
78143;SDS011;67394;52.522;13.622;2023-05-07T10:33:42;3.88;;;2.50;;
78143;SDS011;67394;52.522;13.622;2023-05-07T10:36:11;3.75;;;2.10;;
78143;SDS011;67394;52.522;13.622;2023-05-07T10:38:37;5.35;;;2.45;;
78143;SDS011;67394;52.522;13.622;2023-05-07T10:41:04;3.40;;;2.83;;
78143;SDS011;67394;52.522;13.622;2023-05-07T10:43:41;3.65;;;2.50;;
78143;SDS011;67394;52.522;13.622;2023-05-07T10:51:30;3.42;;;2.40;;
78143;SDS011;67394;52.522;13.622;2023-05-07T10:56:41;3.33;;;2.30;;
78143;SDS011;67394;52.522;13.622;2023-05-07T11:01:52;2.75;;;2.20;;
78143;SDS011;67394;52.522;13.622;2023-05-07T11:04:21;3.08;;;2.20;;
78143;SDS011;67394;52.522;13.622;2023-05-07T11:15:03;2.67;;;1.90;;
78143;SDS011;67394;52.522;13.622;2023-05-07T11:17:35;4.07;;;2.00;;
78143;SDS011;67394;52.522;13.622;2023-05-07T11:20:19;3.42;;;2.25;;
78143;SDS011;67394;52.522;13.622;2023-05-07T11:22:46;3.42;;;2.20;;
78143;SDS011;67394;52.522;13.622;2023-05-07T11:25:17;2.67;;;2.13;;
78143;SDS011;67394;52.522;13.622;2023-05-07T11:27:44;3.47;;;2.03;;
78143;SDS011;67394;52.522;13.622;2023-05-07T11:30:16;2.95;;;1.98;;
78143;SDS011;67394;52.522;13.622;2023-05-07T11:32:43;3.92;;;2.40;;
78143;SDS011;67394;52.522;13.622;2023-05-07T11:35:14;4.32;;;2.15;;
78143;SDS011;67394;52.522;13.622;2023-05-07T11:37:42;6.53;;;2.17;;
78143;SDS011;67394;52.522;13.622;2023-05-07T11:40:10;3.20;;;2.25;;
78143;SDS011;67394;52.522;13.622;2023-05-07T11:42:38;2.75;;;2.00;;
78143;SDS011;67394;52.522;13.622;2023-05-07T11:45:06;3.22;;;1.88;;
78143;SDS011;67394;52.522;13.622;2023-05-07T11:47:33;3.03;;;1.90;;
78143;SDS011;67394;52.522;13.622;2023-05-07T11:50:04;4.60;;;2.25;;
78143;SDS011;67394;52.522;13.622;2023-05-07T11:52:33;3.92;;;2.30;;
78143;SDS011;67394;52.522;13.622;2023-05-07T11:55:01;2.67;;;1.85;;
78143;SDS011;67394;52.522;13.622;2023-05-07T11:57:29;5.57;;;2.20;;
78143;SDS011;67394;52.522;13.622;2023-05-07T11:59:57;2.60;;;1.98;;
78143;SDS011;67394;52.522;13.622;2023-05-07T12:02:25;3.63;;;2.13;;
78143;SDS011;67394;52.522;13.622;2023-05-07T12:04:52;2.75;;;1.55;;
78143;SDS011;67394;52.522;13.622;2023-05-07T12:07:20;2.38;;;2.00;;
78143;SDS011;67394;52.522;13.622;2023-05-07T12:09:47;2.63;;;1.88;;
78143;SDS011;67394;52.522;13.622;2023-05-07T12:14:40;3.13;;;2.00;;
78143;SDS011;67394;52.522;13.622;2023-05-07T12:17:09;2.30;;;1.80;;
78143;SDS011;67394;52.522;13.622;2023-05-07T12:19:37;2.70;;;1.80;;
78143;SDS011;67394;52.522;13.622;2023-05-07T12:22:05;3.33;;;1.80;;
78143;SDS011;67394;52.522;13.622;2023-05-07T12:24:50;3.00;;;1.85;;
78143;SDS011;67394;52.522;13.622;2023-05-07T12:27:25;3.13;;;2.05;;
78143;SDS011;67394;52.522;13.622;2023-05-07T12:29:52;2.80;;;2.00;;
78143;SDS011;67394;52.522;13.622;2023-05-07T12:34:49;2.95;;;1.70;;
78143;SDS011;67394;52.522;13.622;2023-05-07T12:37:16;5.55;;;2.00;;
78143;SDS011;67394;52.522;13.622;2023-05-07T12:39:49;2.55;;;1.73;;
78143;SDS011;67394;52.522;13.622;2023-05-07T12:42:32;2.65;;;1.70;;
78143;SDS011;67394;52.522;13.622;2023-05-07T12:45:07;3.90;;;1.90;;
78143;SDS011;67394;52.522;13.622;2023-05-07T12:47:36;3.15;;;1.90;;
78143;SDS011;67394;52.522;13.622;2023-05-07T12:50:04;2.30;;;1.73;;
78143;SDS011;67394;52.522;13.622;2023-05-07T12:52:32;3.47;;;1.85;;
78143;SDS011;67394;52.522;13.622;2023-05-07T12:55:07;3.92;;;2.00;;
78143;SDS011;67394;52.522;13.622;2023-05-07T12:57:38;3.38;;;1.75;;
78143;SDS011;67394;52.522;13.622;2023-05-07T13:00:06;3.15;;;2.00;;
78143;SDS011;67394;52.522;13.622;2023-05-07T13:02:33;2.42;;;1.83;;
78143;SDS011;67394;52.522;13.622;2023-05-07T13:05:03;4.00;;;1.80;;
78143;SDS011;67394;52.522;13.622;2023-05-07T13:07:30;2.42;;;1.60;;
78143;SDS011;67394;52.522;13.622;2023-05-07T13:09:57;4.18;;;2.22;;
78143;SDS011;67394;52.522;13.622;2023-05-07T13:12:23;5.95;;;2.70;;
78143;SDS011;67394;52.522;13.622;2023-05-07T13:17:18;2.97;;;2.10;;
78143;SDS011;67394;52.522;13.622;2023-05-07T13:19:45;7.05;;;4.22;;
78143;SDS011;67394;52.522;13.622;2023-05-07T13:24:38;2.28;;;1.70;;
78143;SDS011;67394;52.522;13.622;2023-05-07T13:29:31;2.67;;;1.92;;
78143;SDS011;67394;52.522;13.622;2023-05-07T13:31:58;4.28;;;1.80;;
78143;SDS011;67394;52.522;13.622;2023-05-07T13:34:25;2.45;;;1.80;;
78143;SDS011;67394;52.522;13.622;2023-05-07T13:36:52;2.83;;;1.92;;
78143;SDS011;67394;52.522;13.622;2023-05-07T13:41:46;5.72;;;2.30;;
78143;SDS011;67394;52.522;13.622;2023-05-07T13:44:12;2.85;;;2.10;;
78143;SDS011;67394;52.522;13.622;2023-05-07T13:46:39;2.85;;;2.13;;
78143;SDS011;67394;52.522;13.622;2023-05-07T13:49:09;2.63;;;2.00;;
78143;SDS011;67394;52.522;13.622;2023-05-07T13:51:35;4.05;;;2.10;;
78143;SDS011;67394;52.522;13.622;2023-05-07T13:54:03;3.50;;;2.13;;
78143;SDS011;67394;52.522;13.622;2023-05-07T13:56:30;3.05;;;2.00;;
78143;SDS011;67394;52.522;13.622;2023-05-07T13:58:57;2.92;;;1.95;;
78143;SDS011;67394;52.522;13.622;2023-05-07T14:01:26;3.00;;;2.08;;
78143;SDS011;67394;52.522;13.622;2023-05-07T14:03:53;4.90;;;2.25;;
78143;SDS011;67394;52.522;13.622;2023-05-07T14:06:20;3.15;;;1.85;;
78143;SDS011;67394;52.522;13.622;2023-05-07T14:08:49;2.97;;;2.03;;
78143;SDS011;67394;52.522;13.622;2023-05-07T14:11:16;2.80;;;2.00;;
78143;SDS011;67394;52.522;13.622;2023-05-07T14:13:44;3.92;;;1.90;;
78143;SDS011;67394;52.522;13.622;2023-05-07T14:16:11;2.30;;;1.83;;
78143;SDS011;67394;52.522;13.622;2023-05-07T14:18:38;2.63;;;2.03;;
78143;SDS011;67394;52.522;13.622;2023-05-07T14:21:04;2.72;;;1.98;;
78143;SDS011;67394;52.522;13.622;2023-05-07T14:23:31;3.53;;;2.15;;
78143;SDS011;67394;52.522;13.622;2023-05-07T14:25:57;2.17;;;1.70;;
78143;SDS011;67394;52.522;13.622;2023-05-07T14:28:24;2.15;;;1.90;;
78143;SDS011;67394;52.522;13.622;2023-05-07T14:30:51;2.72;;;1.73;;
78143;SDS011;67394;52.522;13.622;2023-05-07T14:33:17;3.05;;;1.70;;
78143;SDS011;67394;52.522;13.622;2023-05-07T14:38:11;2.85;;;1.63;;
78143;SDS011;67394;52.522;13.622;2023-05-07T14:40:37;2.50;;;1.80;;
78143;SDS011;67394;52.522;13.622;2023-05-07T14:43:04;3.42;;;1.73;;
78143;SDS011;67394;52.522;13.622;2023-05-07T14:45:30;3.45;;;2.03;;
78143;SDS011;67394;52.522;13.622;2023-05-07T14:47:57;3.10;;;1.80;;
78143;SDS011;67394;52.522;13.622;2023-05-07T14:50:24;2.97;;;1.60;;
78143;SDS011;67394;52.522;13.622;2023-05-07T14:52:50;2.03;;;1.40;;
78143;SDS011;67394;52.522;13.622;2023-05-07T14:55:17;2.22;;;1.50;;
78143;SDS011;67394;52.522;13.622;2023-05-07T14:57:45;2.10;;;1.45;;
78143;SDS011;67394;52.522;13.622;2023-05-07T15:00:13;3.00;;;1.70;;
78143;SDS011;67394;52.522;13.622;2023-05-07T15:02:40;2.47;;;1.50;;
78143;SDS011;67394;52.522;13.622;2023-05-07T15:05:07;2.10;;;1.50;;
78143;SDS011;67394;52.522;13.622;2023-05-07T15:07:33;2.80;;;1.85;;
78143;SDS011;67394;52.522;13.622;2023-05-07T15:10:00;2.33;;;1.67;;
78143;SDS011;67394;52.522;13.622;2023-05-07T15:12:26;4.05;;;1.70;;
78143;SDS011;67394;52.522;13.622;2023-05-07T15:14:53;2.50;;;1.52;;
78143;SDS011;67394;52.522;13.622;2023-05-07T15:17:20;1.83;;;1.50;;
78143;SDS011;67394;52.522;13.622;2023-05-07T15:19:46;3.90;;;1.88;;
78143;SDS011;67394;52.522;13.622;2023-05-07T15:22:13;2.55;;;1.60;;
78143;SDS011;67394;52.522;13.622;2023-05-07T15:24:40;2.97;;;1.70;;
78143;SDS011;67394;52.522;13.622;2023-05-07T15:27:06;2.70;;;1.50;;